createdAt,value
2022-12-18T00:00:53.992Z,230.09
2022-12-18T00:01:54.057Z,231.55
2022-12-18T00:02:54.135Z,230.90
2022-12-18T00:03:54.171Z,232.05
2022-12-18T00:04:53.949Z,228.48
2022-12-18T00:05:53.937Z,223.48
2022-12-18T00:06:53.912Z,219.14
2022-12-18T00:07:53.921Z,217.39
2022-12-18T00:08:53.911Z,218.26
2022-12-18T00:09:53.881Z,216.38
2022-12-18T00:10:53.863Z,217.68
2022-12-18T00:11:53.865Z,215.52
2022-12-18T00:12:53.852Z,212.86
2022-12-18T00:13:53.851Z,215.10
2022-12-18T00:14:53.824Z,214.68
2022-12-18T00:15:53.854Z,213.83
2022-12-18T00:16:53.793Z,213.41
2022-12-18T00:17:53.785Z,214.53
2022-12-18T00:18:53.778Z,213.14
2022-12-18T00:19:53.775Z,210.53
2022-12-18T00:20:53.746Z,208.51
2022-12-18T00:21:53.741Z,206.54
2022-12-18T00:22:53.720Z,203.96
2022-12-18T00:23:53.723Z,201.32
2022-12-18T00:24:53.695Z,199.48
2022-12-18T00:25:53.683Z,197.79
2022-12-18T00:26:53.677Z,197.19
2022-12-18T00:27:53.662Z,197.43
2022-12-18T00:28:53.646Z,198.87
2022-12-18T00:29:53.645Z,199.85
2022-12-18T00:30:53.617Z,201.69
2022-12-18T00:31:53.635Z,200.83
2022-12-18T00:32:53.607Z,202.57
2022-12-18T00:33:55.399Z,203.71
2022-12-18T00:34:53.570Z,205.11
2022-12-18T00:35:53.574Z,205.76
2022-12-18T00:36:53.546Z,206.15
2022-12-18T00:37:53.539Z,205.89
2022-12-18T00:38:53.526Z,208.12
2022-12-18T00:39:53.525Z,208.65
2022-12-18T00:40:53.526Z,209.18
2022-12-18T00:41:53.495Z,208.78
2022-12-18T00:42:53.489Z,211.34
2022-12-18T00:43:53.459Z,210.80
2022-12-18T00:44:53.440Z,211.34
2022-12-18T00:45:53.480Z,209.18
2022-12-18T00:46:53.416Z,208.25
2022-12-18T00:47:53.415Z,207.32
2022-12-18T00:48:53.389Z,206.02
2022-12-18T00:49:53.391Z,205.89
2022-12-18T00:50:53.374Z,206.15
2022-12-18T00:51:53.360Z,204.98
2022-12-18T00:52:53.364Z,207.32
2022-12-18T00:53:53.334Z,210.12
2022-12-18T00:54:53.319Z,211.34
2022-12-18T00:55:53.342Z,216.81
2022-12-18T00:56:53.298Z,221.21
2022-12-18T00:57:53.292Z,224.25
2022-12-18T00:58:53.282Z,224.25
2022-12-18T00:59:53.260Z,224.40
2022-12-18T01:00:53.312Z,222.87
2022-12-18T01:01:53.482Z,221.51
2022-12-18T01:02:53.387Z,216.24
2022-12-18T01:03:53.210Z,214.25
2022-12-18T01:04:53.192Z,217.68
2022-12-18T01:05:53.201Z,222.12
2022-12-18T01:06:53.173Z,221.96
2022-12-18T01:07:53.172Z,223.33
2022-12-18T01:08:53.152Z,224.09
2022-12-18T01:09:53.132Z,223.94
2022-12-18T01:10:53.120Z,222.27
2022-12-18T01:11:53.128Z,222.72
2022-12-18T01:12:53.092Z,220.62
2022-12-18T01:13:53.090Z,222.12
2022-12-18T01:14:53.072Z,223.48
2022-12-18T01:15:53.061Z,222.72
2022-12-18T01:16:53.141Z,220.62
2022-12-18T01:17:53.045Z,219.73
2022-12-18T01:18:53.031Z,218.84
2022-12-18T01:19:53.019Z,217.10
2022-12-18T01:20:52.993Z,215.24
2022-12-18T01:21:52.994Z,219.43
2022-12-18T01:22:52.972Z,219.43
2022-12-18T01:23:52.966Z,221.66
2022-12-18T01:24:52.961Z,220.62
2022-12-18T01:25:52.943Z,220.32
2022-12-18T01:26:52.974Z,223.63
2022-12-18T01:27:52.915Z,226.89
2022-12-18T01:28:52.912Z,230.41
2022-12-18T01:29:52.902Z,232.88
2022-12-18T01:30:52.874Z,234.55
2022-12-18T01:31:52.886Z,234.88
2022-12-18T01:32:52.847Z,236.24
2022-12-18T01:33:52.831Z,237.79
2022-12-18T01:34:52.819Z,235.90
2022-12-18T01:35:52.805Z,240.06
2022-12-18T01:36:52.818Z,240.41
2022-12-18T01:37:52.798Z,238.13
2022-12-18T01:38:52.783Z,240.06
2022-12-18T01:39:52.771Z,240.94
2022-12-18T01:40:52.754Z,239.53
2022-12-18T01:41:52.750Z,237.27
2022-12-18T01:42:52.729Z,235.90
2022-12-18T01:43:52.713Z,236.24
2022-12-18T01:44:52.705Z,236.07
2022-12-18T01:45:52.717Z,235.56
2022-12-18T01:46:52.674Z,238.31
2022-12-18T01:47:52.677Z,241.12
2022-12-18T01:48:52.650Z,241.12
2022-12-18T01:49:52.636Z,244.91
2022-12-18T01:50:52.645Z,244.00
2022-12-18T01:51:52.610Z,244.55
2022-12-18T01:52:52.601Z,242.55
2022-12-18T01:53:52.590Z,245.46
2022-12-18T01:54:52.581Z,251.70
2022-12-18T01:55:52.565Z,252.68
2022-12-18T01:56:52.555Z,256.85
2022-12-18T01:57:52.547Z,259.29
2022-12-18T01:58:52.528Z,259.70
2022-12-18T01:59:52.514Z,262.62
2022-12-18T02:00:52.600Z,259.91
2022-12-18T02:01:52.676Z,258.67
2022-12-18T02:02:52.614Z,259.08
2022-12-18T02:03:52.482Z,256.24
2022-12-18T02:04:52.457Z,256.85
2022-12-18T02:05:52.444Z,255.84
2022-12-18T02:06:52.462Z,254.05
2022-12-18T02:07:52.425Z,254.45
2022-12-18T02:08:52.415Z,250.35
2022-12-18T02:09:52.401Z,246.95
2022-12-18T02:10:52.387Z,245.46
2022-12-18T02:11:52.369Z,245.46
2022-12-18T02:12:52.359Z,240.76
2022-12-18T02:13:52.347Z,241.12
2022-12-18T02:14:52.321Z,242.37
2022-12-18T02:15:52.313Z,244.18
2022-12-18T02:16:52.355Z,246.95
2022-12-18T02:17:52.299Z,247.14
2022-12-18T02:18:52.294Z,246.39
2022-12-18T02:19:52.271Z,240.41
2022-12-18T02:20:52.270Z,238.48
2022-12-18T02:21:52.236Z,234.38
2022-12-18T02:22:52.223Z,234.55
2022-12-18T02:23:52.232Z,233.87
2022-12-18T02:24:52.198Z,232.05
2022-12-18T02:25:52.186Z,232.21
2022-12-18T02:26:52.178Z,232.21
2022-12-18T02:27:52.167Z,235.39
2022-12-18T02:28:52.164Z,233.87
2022-12-18T02:29:57.981Z,235.39
2022-12-18T02:30:52.233Z,236.24
2022-12-18T02:31:52.119Z,236.41
2022-12-18T02:32:52.107Z,238.83
2022-12-18T02:33:52.104Z,236.07
2022-12-18T02:34:52.097Z,232.88
2022-12-18T02:35:52.069Z,230.41
2022-12-18T02:36:52.057Z,227.05
2022-12-18T02:37:52.054Z,223.18
2022-12-18T02:38:52.064Z,222.27
2022-12-18T02:39:52.047Z,221.96
2022-12-18T02:40:52.008Z,222.57
2022-12-18T02:41:51.991Z,221.96
2022-12-18T02:42:51.971Z,226.11
2022-12-18T02:43:51.968Z,229.44
2022-12-18T02:44:51.964Z,231.23
2022-12-18T02:45:52.010Z,233.54
2022-12-18T02:46:51.927Z,231.39
2022-12-18T02:47:51.922Z,232.54
2022-12-18T02:48:51.909Z,231.72
2022-12-18T02:49:51.903Z,233.04
2022-12-18T02:50:51.876Z,229.44
2022-12-18T02:51:51.871Z,228.16
2022-12-18T02:52:51.853Z,228.32
2022-12-18T02:53:51.846Z,225.33
2022-12-18T02:54:51.839Z,226.11
2022-12-18T02:55:51.818Z,227.84
2022-12-18T02:56:51.802Z,227.21
2022-12-18T02:57:51.797Z,226.74
2022-12-18T02:58:51.780Z,224.56
2022-12-18T02:59:51.779Z,224.25
2022-12-18T03:00:51.805Z,225.49
2022-12-18T03:01:51.937Z,228.32
2022-12-18T03:02:51.806Z,230.74
2022-12-18T03:03:51.718Z,232.71
2022-12-18T03:04:51.709Z,232.54
2022-12-18T03:05:51.725Z,228.64
2022-12-18T03:06:51.680Z,228.64
2022-12-18T03:07:51.686Z,230.25
2022-12-18T03:08:51.659Z,230.57
2022-12-18T03:09:51.650Z,228.48
2022-12-18T03:10:51.637Z,230.09
2022-12-18T03:11:51.622Z,229.12
2022-12-18T03:12:51.605Z,228.64
2022-12-18T03:13:51.593Z,225.80
2022-12-18T03:14:51.581Z,223.33
2022-12-18T03:15:51.584Z,222.72
2022-12-18T03:16:51.596Z,223.48
2022-12-18T03:17:51.550Z,225.95
2022-12-18T03:18:51.542Z,227.53
2022-12-18T03:19:51.514Z,228.48
2022-12-18T03:20:51.516Z,224.56
2022-12-18T03:21:51.498Z,215.81
2022-12-18T03:22:51.487Z,214.53
2022-12-18T03:23:51.471Z,215.38
2022-12-18T03:24:51.472Z,213.97
2022-12-18T03:25:51.456Z,213.27
2022-12-18T03:26:51.433Z,213.14
2022-12-18T03:27:51.422Z,212.30
2022-12-18T03:28:51.420Z,214.25
2022-12-18T03:29:51.394Z,215.67
2022-12-18T03:30:51.489Z,216.24
2022-12-18T03:31:51.370Z,217.24
2022-12-18T03:32:51.361Z,216.52
2022-12-18T03:33:51.347Z,218.99
2022-12-18T03:34:51.355Z,220.02
2022-12-18T03:35:51.329Z,223.18
2022-12-18T03:36:51.314Z,226.74
2022-12-18T03:37:51.298Z,225.95
2022-12-18T03:38:51.298Z,227.68
2022-12-18T03:39:51.274Z,225.02
2022-12-18T03:40:51.277Z,226.42
2022-12-18T03:41:51.251Z,225.18
2022-12-18T03:42:51.243Z,226.42
2022-12-18T03:43:51.234Z,228.64
2022-12-18T03:44:51.215Z,228.96
2022-12-18T03:45:51.244Z,227.53
2022-12-18T03:46:51.190Z,229.93
2022-12-18T03:47:51.175Z,229.76
2022-12-18T03:48:51.165Z,228.32
2022-12-18T03:49:51.147Z,230.90
2022-12-18T03:50:51.140Z,230.90
2022-12-18T03:51:51.136Z,230.90
2022-12-18T03:52:51.123Z,228.80
2022-12-18T03:53:51.104Z,225.49
2022-12-18T03:54:51.103Z,217.24
2022-12-18T03:55:51.097Z,215.95
2022-12-18T03:56:51.075Z,216.81
2022-12-18T03:57:51.054Z,219.28
2022-12-18T03:58:51.041Z,222.87
2022-12-18T03:59:51.030Z,223.94
2022-12-18T04:00:51.023Z,227.05
2022-12-18T04:01:51.128Z,228.64
2022-12-18T04:02:50.989Z,224.87
2022-12-18T04:03:51.023Z,223.48
2022-12-18T04:04:50.967Z,224.40
2022-12-18T04:05:50.955Z,222.72
2022-12-18T04:06:50.955Z,220.76
2022-12-18T04:07:50.930Z,222.87
2022-12-18T04:08:50.920Z,223.63
2022-12-18T04:09:50.915Z,227.53
2022-12-18T04:10:50.904Z,228.48
2022-12-18T04:11:50.891Z,225.18
2022-12-18T04:12:50.867Z,223.18
2022-12-18T04:13:50.870Z,220.02
2022-12-18T04:14:50.868Z,223.33
2022-12-18T04:15:50.880Z,224.40
2022-12-18T04:16:50.831Z,227.84
2022-12-18T04:17:50.850Z,225.02
2022-12-18T04:18:50.795Z,223.02
2022-12-18T04:19:50.786Z,220.47
2022-12-18T04:20:50.775Z,220.32
2022-12-18T04:21:50.771Z,221.21
2022-12-18T04:22:50.752Z,220.76
2022-12-18T04:23:50.743Z,224.09
2022-12-18T04:24:50.718Z,226.42
2022-12-18T04:25:50.711Z,229.12
2022-12-18T04:26:50.706Z,227.84
2022-12-18T04:27:50.715Z,227.84
2022-12-18T04:28:50.678Z,224.09
2022-12-18T04:29:50.677Z,222.87
2022-12-18T04:30:50.700Z,217.24
2022-12-18T04:31:50.635Z,210.53
2022-12-18T04:32:52.437Z,206.67
2022-12-18T04:33:50.618Z,206.28
2022-12-18T04:34:50.612Z,202.57
2022-12-18T04:35:50.588Z,199.97
2022-12-18T04:36:50.577Z,198.27
2022-12-18T04:37:50.601Z,197.19
2022-12-18T04:38:50.549Z,197.55
2022-12-18T04:39:50.541Z,197.31
2022-12-18T04:40:50.526Z,200.70
2022-12-18T04:41:50.510Z,203.58
2022-12-18T04:42:50.538Z,206.41
2022-12-18T04:43:50.489Z,211.62
2022-12-18T04:44:50.475Z,214.82
2022-12-18T04:45:50.464Z,214.25
2022-12-18T04:46:50.499Z,215.10
2022-12-18T04:47:50.467Z,218.84
2022-12-18T04:48:50.432Z,220.32
2022-12-18T04:49:50.409Z,224.56
2022-12-18T04:50:50.416Z,229.28
2022-12-18T04:51:50.389Z,231.72
2022-12-18T04:52:50.392Z,233.04
2022-12-18T04:53:50.378Z,231.55
2022-12-18T04:54:50.360Z,233.04
2022-12-18T04:55:50.358Z,235.73
2022-12-18T04:56:50.340Z,230.09
2022-12-18T04:57:50.328Z,227.53
2022-12-18T04:58:50.319Z,225.95
2022-12-18T04:59:50.301Z,218.99
2022-12-18T05:00:50.312Z,212.30
2022-12-18T05:01:50.414Z,210.53
2022-12-18T05:02:50.435Z,209.72
2022-12-18T05:03:50.331Z,212.03
2022-12-18T05:04:50.246Z,210.12
2022-12-18T05:05:50.216Z,213.41
2022-12-18T05:06:50.208Z,212.30
2022-12-18T05:07:50.189Z,207.72
2022-12-18T05:08:50.193Z,205.89
2022-12-18T05:09:50.171Z,206.28
2022-12-18T05:10:50.155Z,207.06
2022-12-18T05:11:50.154Z,206.15
2022-12-18T05:12:50.132Z,205.50
2022-12-18T05:13:50.130Z,205.11
2022-12-18T05:14:50.118Z,203.96
2022-12-18T05:15:50.134Z,204.73
2022-12-18T05:16:50.081Z,203.20
2022-12-18T05:17:50.072Z,203.07
2022-12-18T05:18:50.091Z,203.20
2022-12-18T05:19:50.058Z,202.82
2022-12-18T05:20:50.048Z,198.87
2022-12-18T05:21:50.017Z,197.43
2022-12-18T05:22:50.014Z,196.24
2022-12-18T05:23:50.014Z,196.84
2022-12-18T05:24:50.003Z,198.51
2022-12-18T05:25:50.005Z,201.82
2022-12-18T05:26:49.965Z,207.06
2022-12-18T05:27:49.947Z,210.80
2022-12-18T05:28:49.948Z,212.03
2022-12-18T05:29:49.932Z,214.82
2022-12-18T05:30:49.959Z,218.55
2022-12-18T05:31:49.962Z,217.53
2022-12-18T05:32:49.885Z,215.10
2022-12-18T05:33:49.875Z,216.24
2022-12-18T05:34:49.885Z,214.39
2022-12-18T05:35:49.858Z,214.25
2022-12-18T05:36:49.831Z,213.41
2022-12-18T05:37:49.839Z,214.11
2022-12-18T05:38:49.816Z,218.26
2022-12-18T05:39:49.821Z,221.51
2022-12-18T05:40:49.788Z,222.12
2022-12-18T05:41:49.775Z,228.80
2022-12-18T05:42:49.761Z,232.71
2022-12-18T05:43:49.748Z,235.39
2022-12-18T05:44:49.759Z,236.93
2022-12-18T05:45:49.718Z,236.75
2022-12-18T05:46:49.857Z,237.79
2022-12-18T05:47:49.703Z,238.31
2022-12-18T05:48:49.687Z,235.39
2022-12-18T05:49:49.669Z,233.87
2022-12-18T05:50:49.666Z,233.04
2022-12-18T05:51:49.658Z,231.88
2022-12-18T05:52:49.634Z,231.72
2022-12-18T05:53:49.628Z,231.88
2022-12-18T05:54:49.612Z,235.90
2022-12-18T05:55:49.603Z,239.88
2022-12-18T05:56:49.588Z,244.55
2022-12-18T05:57:49.571Z,245.28
2022-12-18T05:58:49.563Z,246.39
2022-12-18T05:59:49.542Z,247.32
2022-12-18T06:00:49.548Z,248.45
2022-12-18T06:01:49.680Z,244.18
2022-12-18T06:02:49.636Z,237.79
2022-12-18T06:03:49.573Z,234.04
2022-12-18T06:04:49.495Z,229.44
2022-12-18T06:05:49.486Z,223.02
2022-12-18T06:06:49.461Z,218.70
2022-12-18T06:07:49.445Z,218.26
2022-12-18T06:08:49.441Z,218.11
2022-12-18T06:09:49.426Z,217.39
2022-12-18T06:10:49.446Z,213.41
2022-12-18T06:11:49.403Z,212.17
2022-12-18T06:12:49.417Z,209.99
2022-12-18T06:13:52.437Z,206.41
2022-12-18T06:14:49.368Z,206.93
2022-12-18T06:15:49.415Z,211.34
2022-12-18T06:16:49.342Z,214.39
2022-12-18T06:17:49.338Z,215.10
2022-12-18T06:18:49.314Z,217.97
2022-12-18T06:19:49.318Z,223.79
2022-12-18T06:20:49.303Z,226.42
2022-12-18T06:21:49.278Z,227.84
2022-12-18T06:22:49.277Z,229.60
2022-12-18T06:23:49.249Z,225.49
2022-12-18T06:24:49.239Z,222.57
2022-12-18T06:25:49.508Z,220.91
2022-12-18T06:26:49.239Z,217.82
2022-12-18T06:27:49.203Z,220.17
2022-12-18T06:28:49.199Z,221.21
2022-12-18T06:29:49.183Z,220.62
2022-12-18T06:30:49.180Z,220.91
2022-12-18T06:31:49.227Z,225.64
2022-12-18T06:32:53.127Z,231.23
2022-12-18T06:33:49.129Z,235.39
2022-12-18T06:34:49.157Z,243.64
2022-12-18T06:35:49.112Z,247.70
2022-12-18T06:36:49.105Z,250.54
2022-12-18T06:37:49.079Z,251.70
2022-12-18T06:38:49.075Z,248.83
2022-12-18T06:39:49.067Z,240.59
2022-12-18T06:40:49.055Z,234.71
2022-12-18T06:41:49.035Z,225.18
2022-12-18T06:42:49.024Z,222.27
2022-12-18T06:43:49.010Z,221.21
2022-12-18T06:44:48.995Z,224.56
2022-12-18T06:45:49.082Z,227.05
2022-12-18T06:46:48.986Z,231.55
2022-12-18T06:47:48.964Z,234.71
2022-12-18T06:48:48.969Z,232.88
2022-12-18T06:49:48.964Z,234.55
2022-12-18T06:50:48.926Z,236.75
2022-12-18T06:51:48.923Z,239.00
2022-12-18T06:52:48.918Z,242.73
2022-12-18T06:53:48.892Z,246.95
2022-12-18T06:54:48.887Z,244.91
2022-12-18T06:55:48.860Z,245.84
2022-12-18T06:56:48.854Z,244.55
2022-12-18T06:57:48.835Z,245.65
2022-12-18T06:58:48.824Z,247.14
2022-12-18T06:59:48.825Z,248.83
2022-12-18T07:00:48.847Z,249.40
2022-12-18T07:01:48.953Z,253.26
2022-12-18T07:02:48.831Z,248.45
2022-12-18T07:03:48.762Z,248.45
2022-12-18T07:04:48.749Z,242.37
2022-12-18T07:05:48.737Z,239.00
2022-12-18T07:06:48.752Z,237.10
2022-12-18T07:07:48.711Z,235.39
2022-12-18T07:08:48.700Z,234.21
2022-12-18T07:09:48.689Z,232.88
2022-12-18T07:10:52.830Z,233.87
2022-12-18T07:11:48.668Z,236.58
2022-12-18T07:12:48.670Z,240.06
2022-12-18T07:13:48.638Z,240.41
2022-12-18T07:14:48.624Z,240.41
2022-12-18T07:15:48.608Z,239.71
2022-12-18T07:16:48.653Z,240.59
2022-12-18T07:17:48.601Z,238.65
2022-12-18T07:18:48.582Z,235.05
2022-12-18T07:19:48.572Z,234.38
2022-12-18T07:20:48.565Z,236.07
2022-12-18T07:21:48.549Z,235.05
2022-12-18T07:22:52.045Z,237.27
2022-12-18T07:23:48.522Z,236.75
2022-12-18T07:24:48.507Z,235.56
2022-12-18T07:25:48.486Z,235.90
2022-12-18T07:26:48.472Z,236.58
2022-12-18T07:27:48.478Z,238.13
2022-12-18T07:28:48.460Z,235.22
2022-12-18T07:29:48.453Z,233.54
2022-12-18T07:30:48.427Z,229.44
2022-12-18T07:31:48.496Z,228.00
2022-12-18T07:32:48.403Z,227.84
2022-12-18T07:33:48.393Z,227.05
2022-12-18T07:34:48.377Z,227.53
2022-12-18T07:35:48.375Z,227.53
2022-12-18T07:36:48.371Z,226.89
2022-12-18T07:37:48.370Z,222.57
2022-12-18T07:38:48.347Z,221.06
2022-12-18T07:39:48.323Z,216.52
2022-12-18T07:40:48.301Z,215.24
2022-12-18T07:41:48.304Z,216.09
2022-12-18T07:42:48.295Z,213.69
2022-12-18T07:43:48.273Z,217.68
2022-12-18T07:44:48.262Z,215.95
2022-12-18T07:45:48.294Z,216.38
2022-12-18T07:46:48.226Z,220.32
2022-12-18T07:47:48.226Z,221.06
2022-12-18T07:48:49.833Z,222.72
2022-12-18T07:49:48.194Z,222.27
2022-12-18T07:50:48.186Z,221.21
2022-12-18T07:51:48.174Z,222.87
2022-12-18T07:52:48.177Z,226.27
2022-12-18T07:53:49.473Z,232.88
2022-12-18T07:54:48.135Z,235.05
2022-12-18T07:56:18.475Z,237.61
2022-12-18T07:56:48.125Z,236.07
2022-12-18T07:57:50.951Z,234.04
2022-12-18T07:58:48.092Z,235.56
2022-12-18T07:59:48.071Z,234.04
2022-12-18T08:00:48.094Z,228.64
2022-12-18T08:01:48.186Z,226.58
2022-12-18T08:02:48.229Z,228.16
2022-12-18T08:03:48.032Z,223.02
2022-12-18T08:04:48.007Z,215.38
2022-12-18T08:05:47.996Z,210.66
2022-12-18T08:06:48.539Z,206.41
2022-12-18T08:07:47.985Z,208.91
2022-12-18T08:08:47.968Z,209.31
2022-12-18T08:09:47.956Z,204.73
2022-12-18T08:10:47.928Z,207.72
2022-12-18T08:11:47.939Z,210.66
2022-12-18T08:12:47.928Z,213.97
2022-12-18T08:13:47.903Z,208.65
2022-12-18T08:14:47.888Z,206.15
2022-12-18T08:15:47.871Z,203.58
2022-12-18T08:16:47.958Z,200.34
2022-12-18T08:17:47.853Z,199.11
2022-12-18T08:18:47.841Z,198.75
2022-12-18T08:19:47.829Z,201.07
2022-12-18T08:20:47.810Z,204.21
2022-12-18T08:21:47.794Z,214.68
2022-12-18T08:22:47.782Z,227.37
2022-12-18T08:23:48.065Z,237.27
2022-12-18T08:24:47.805Z,249.59
2022-12-18T08:25:47.749Z,250.93
2022-12-18T08:27:06.773Z,254.25
2022-12-18T08:27:47.730Z,256.85
2022-12-18T08:28:47.741Z,254.25
2022-12-18T08:29:47.698Z,253.07
2022-12-18T08:30:47.747Z,261.57
2022-12-18T08:31:47.720Z,271.12
2022-12-18T08:32:47.672Z,279.46
2022-12-18T08:33:47.665Z,281.14
2022-12-18T08:34:47.639Z,277.80
2022-12-18T08:35:47.620Z,282.60
2022-12-18T08:36:47.605Z,289.61
2022-12-18T08:37:47.602Z,288.85
2022-12-18T08:38:47.591Z,284.57
2022-12-18T08:39:47.585Z,278.04
2022-12-18T08:40:47.560Z,263.68
2022-12-18T08:41:47.551Z,261.57
2022-12-18T08:42:47.536Z,253.66
2022-12-18T08:43:47.539Z,242.91
2022-12-18T08:44:47.514Z,242.73
2022-12-18T08:45:47.653Z,248.45
2022-12-18T08:46:47.526Z,257.25
2022-12-18T08:47:47.473Z,257.86
2022-12-18T08:48:47.462Z,260.95
2022-12-18T08:49:47.483Z,262.83
2022-12-18T08:50:47.435Z,256.24
2022-12-18T08:51:47.424Z,259.91
2022-12-18T08:52:47.437Z,259.08
2022-12-18T08:53:47.401Z,255.24
2022-12-18T08:54:47.409Z,256.24
2022-12-18T08:55:50.343Z,255.04
2022-12-18T08:56:47.361Z,254.25
2022-12-18T08:57:47.348Z,256.85
2022-12-18T08:58:47.335Z,246.02
2022-12-18T08:59:47.339Z,243.64
2022-12-18T09:00:47.321Z,242.19
2022-12-18T09:01:47.453Z,237.10
2022-12-18T09:02:47.507Z,243.82
2022-12-18T09:03:47.288Z,254.25
2022-12-18T09:04:49.154Z,257.25
2022-12-18T09:05:47.261Z,268.45
2022-12-18T09:06:47.243Z,270.22
2022-12-18T09:07:47.256Z,270.44
2022-12-18T09:08:47.215Z,269.33
2022-12-18T09:09:47.200Z,271.57
2022-12-18T09:10:47.195Z,266.91
2022-12-18T09:11:47.183Z,261.99
2022-12-18T09:12:47.171Z,256.85
2022-12-18T09:13:47.155Z,253.66
2022-12-18T09:14:47.140Z,255.24
2022-12-18T09:15:47.135Z,256.85
2022-12-18T09:16:47.162Z,258.88
2022-12-18T09:17:47.110Z,258.67
2022-12-18T09:18:47.090Z,258.47
2022-12-18T09:19:47.078Z,258.88
2022-12-18T09:20:47.069Z,255.24
2022-12-18T09:21:48.502Z,255.84
2022-12-18T09:22:47.039Z,253.85
2022-12-18T09:23:47.030Z,241.48
2022-12-18T09:24:47.014Z,234.21
2022-12-18T09:25:47.008Z,235.22
2022-12-18T09:26:47.751Z,234.38
2022-12-18T09:27:46.980Z,235.22
2022-12-18T09:28:46.963Z,241.48
2022-12-18T09:29:46.954Z,248.83
2022-12-18T09:30:46.991Z,265.39
2022-12-18T09:31:46.931Z,268.01
2022-12-18T09:32:46.908Z,253.07
2022-12-18T09:33:46.929Z,241.83
2022-12-18T09:34:46.890Z,242.73
2022-12-18T09:35:46.899Z,248.26
2022-12-18T09:36:47.416Z,255.64
2022-12-18T09:37:46.854Z,254.84
2022-12-18T09:38:46.847Z,251.32
2022-12-18T09:39:46.830Z,247.70
2022-12-18T09:40:46.818Z,248.64
2022-12-18T09:41:46.813Z,246.21
2022-12-18T09:42:46.790Z,251.90
2022-12-18T09:43:46.782Z,250.16
2022-12-18T09:44:46.818Z,246.58
2022-12-18T09:45:46.815Z,240.41
2022-12-18T09:46:46.809Z,242.37
2022-12-18T09:47:46.726Z,251.12
2022-12-18T09:48:46.721Z,249.40
2022-12-18T09:49:46.704Z,259.08
2022-12-18T09:50:46.688Z,266.04
2022-12-18T09:51:46.686Z,261.36
2022-12-18T09:52:46.665Z,261.15
2022-12-18T09:53:46.657Z,258.67
2022-12-18T09:54:46.652Z,250.74
2022-12-18T09:55:46.627Z,251.70
2022-12-18T09:56:46.626Z,255.84
2022-12-18T09:57:46.613Z,259.29
2022-12-18T09:58:46.587Z,263.89
2022-12-18T09:59:46.585Z,265.39
2022-12-18T10:00:46.570Z,272.47
2022-12-18T10:01:47.438Z,274.30
2022-12-18T10:02:46.652Z,282.11
2022-12-18T10:03:46.536Z,293.25
2022-12-18T10:04:46.540Z,294.57
2022-12-18T10:05:46.506Z,296.98
2022-12-18T10:06:46.500Z,297.52
2022-12-18T10:07:46.487Z,305.87
2022-12-18T10:08:46.463Z,302.76
2022-12-18T10:09:46.457Z,290.64
2022-12-18T10:10:46.436Z,284.08
2022-12-18T10:11:46.446Z,280.42
2022-12-18T10:12:46.434Z,280.90
2022-12-18T10:13:46.401Z,282.85
2022-12-18T10:14:46.411Z,287.07
2022-12-18T10:15:46.448Z,287.58
2022-12-18T10:16:46.360Z,293.78
2022-12-18T10:17:46.364Z,298.88
2022-12-18T10:18:46.364Z,298.34
2022-12-18T10:19:46.325Z,293.25
2022-12-18T10:20:46.323Z,281.63
2022-12-18T10:21:46.302Z,273.84
2022-12-18T10:22:46.289Z,272.02
2022-12-18T10:23:48.406Z,266.48
2022-12-18T10:24:46.271Z,265.39
2022-12-18T10:25:46.259Z,262.20
2022-12-18T10:26:46.239Z,255.44
2022-12-18T10:27:46.237Z,253.07
2022-12-18T10:28:46.236Z,246.58
2022-12-18T10:29:46.213Z,245.84
2022-12-18T10:30:46.269Z,250.74
2022-12-18T10:31:46.177Z,257.45
2022-12-18T10:32:46.166Z,269.11
2022-12-18T10:33:46.174Z,273.16
2022-12-18T10:34:46.143Z,267.57
2022-12-18T10:35:46.151Z,257.45
2022-12-18T10:36:46.114Z,254.45
2022-12-18T10:37:46.108Z,249.02
2022-12-18T10:38:46.112Z,250.74
2022-12-18T10:39:46.096Z,255.44
2022-12-18T10:40:46.067Z,254.25
2022-12-18T10:41:46.057Z,254.25
2022-12-18T10:42:46.057Z,256.04
2022-12-18T10:43:46.028Z,257.86
2022-12-18T10:44:46.044Z,258.06
2022-12-18T10:45:46.008Z,263.68
2022-12-18T10:46:46.084Z,268.01
2022-12-18T10:47:45.987Z,271.12
2022-12-18T10:48:45.966Z,274.30
2022-12-18T10:49:45.974Z,275.92
2022-12-18T10:51:10.267Z,271.12
2022-12-18T10:51:45.954Z,267.79
2022-12-18T10:52:48.126Z,265.18
2022-12-18T10:53:45.914Z,258.67
2022-12-18T10:54:45.918Z,264.11
2022-12-18T10:55:45.881Z,270.89
2022-12-18T10:56:45.881Z,274.30
2022-12-18T10:57:45.863Z,277.56
2022-12-18T10:58:46.530Z,281.87
2022-12-18T10:59:45.842Z,292.99
2022-12-18T11:00:45.826Z,294.31
2022-12-18T11:01:45.915Z,299.43
2022-12-18T11:02:46.064Z,301.08
2022-12-18T11:03:45.855Z,301.92
2022-12-18T11:04:45.779Z,291.94
2022-12-18T11:05:45.754Z,290.90
2022-12-18T11:06:45.741Z,291.16
2022-12-18T11:07:45.734Z,282.11
2022-12-18T11:08:45.721Z,278.27
2022-12-18T11:09:46.088Z,279.70
2022-12-18T11:10:45.704Z,272.02
2022-12-18T11:11:45.683Z,273.16
2022-12-18T11:12:45.671Z,277.56
2022-12-18T11:13:52.204Z,288.85
2022-12-18T11:14:47.454Z,286.57
2022-12-18T11:15:46.408Z,284.57
2022-12-18T11:17:03.018Z,281.39
2022-12-18T11:17:45.618Z,276.39
2022-12-18T11:18:45.596Z,271.12
2022-12-18T11:19:45.870Z,253.07
2022-12-18T11:20:45.711Z,231.88
2022-12-18T11:21:45.631Z,227.37
2022-12-18T11:22:46.590Z,222.72
2022-12-18T11:23:45.761Z,211.48
2022-12-18T11:25:02.233Z,217.39
2022-12-18T11:25:46.040Z,218.26
2022-12-18T11:26:47.871Z,215.52
2022-12-18T11:27:47.163Z,220.62
2022-12-18T11:28:46.029Z,232.05
2022-12-18T11:29:46.836Z,239.35
2022-12-18T11:30:49.779Z,242.19
2022-12-18T11:31:46.451Z,247.32
2022-12-18T11:32:46.996Z,256.64
2022-12-18T11:33:58.651Z,259.91
2022-12-18T11:34:45.540Z,264.11
2022-12-18T11:35:47.776Z,265.18
2022-12-18T11:36:45.403Z,264.96
2022-12-18T11:37:49.449Z,268.23
2022-12-18T11:38:50.731Z,269.33
2022-12-18T11:39:46.329Z,270.67
2022-12-18T11:40:45.853Z,271.57
2022-12-18T11:41:47.090Z,273.84
2022-12-18T11:42:47.332Z,253.26
2022-12-18T11:43:46.155Z,243.27
2022-12-18T11:44:45.367Z,240.23
2022-12-18T11:45:45.628Z,244.55
2022-12-18T11:46:46.011Z,251.32
2022-12-18T11:47:45.662Z,264.96
2022-12-18T11:48:45.620Z,270.44
2022-12-18T11:49:45.423Z,271.34
2022-12-18T11:50:46.377Z,274.30
2022-12-18T11:51:45.545Z,284.82
2022-12-18T11:52:45.215Z,296.17
2022-12-18T11:53:45.436Z,299.43
2022-12-18T11:54:46.239Z,288.85
2022-12-18T11:55:46.104Z,294.31
2022-12-18T11:56:45.393Z,302.76
2022-12-18T11:57:46.152Z,308.47
2022-12-18T11:58:46.696Z,302.76
2022-12-18T11:59:46.329Z,294.84
2022-12-18T12:00:46.335Z,291.42
2022-12-18T12:01:45.312Z,282.36
2022-12-18T12:02:45.683Z,276.62
2022-12-18T12:03:46.213Z,273.84
2022-12-18T12:04:45.231Z,268.23
2022-12-18T12:05:45.201Z,271.12
2022-12-18T12:06:45.787Z,278.51
2022-12-18T12:07:45.191Z,286.07
2022-12-18T12:08:45.248Z,288.85
2022-12-18T12:09:45.356Z,289.36
2022-12-18T12:10:45.259Z,286.32
2022-12-18T12:11:45.396Z,285.07
2022-12-18T12:12:48.733Z,274.30
2022-12-18T12:13:47.407Z,274.99
2022-12-18T12:14:45.410Z,274.07
2022-12-18T12:15:46.000Z,278.27
2022-12-18T12:16:45.698Z,270.67
2022-12-18T12:17:45.161Z,264.54
2022-12-18T12:18:44.862Z,263.89
2022-12-18T12:19:44.840Z,266.26
2022-12-18T12:20:44.825Z,274.53
2022-12-18T12:21:44.837Z,271.12
2022-12-18T12:22:44.804Z,267.79
2022-12-18T12:23:45.330Z,267.57
2022-12-18T12:24:44.791Z,266.48
2022-12-18T12:25:44.766Z,271.34
2022-12-18T12:26:44.772Z,264.96
2022-12-18T12:27:44.772Z,257.05
2022-12-18T12:28:44.727Z,253.85